createdAt,value
2018-08-09T00:00:54.250Z,76.41
2018-08-09T00:05:51.759Z,75.17
2018-08-09T00:10:49.269Z,76.19
2018-08-09T00:15:46.790Z,75.40
2018-08-09T00:20:44.278Z,76.21
2018-08-09T00:25:41.761Z,76.38
2018-08-09T00:30:39.313Z,76.80
2018-08-09T00:35:36.798Z,76.08
2018-08-09T00:40:34.283Z,74.58
2018-08-09T00:45:31.950Z,75.88
2018-08-09T00:50:29.488Z,77.13
2018-08-09T00:55:26.995Z,77.58
2018-08-09T01:00:24.502Z,78.59
2018-08-09T01:05:22.005Z,78.61
2018-08-09T01:10:19.515Z,78.76
2018-08-09T01:15:17.003Z,77.60
2018-08-09T01:20:14.549Z,77.90
2018-08-09T01:25:12.049Z,79.20
2018-08-09T01:30:09.547Z,79.40
2018-08-09T01:35:07.086Z,80.33
2018-08-09T01:40:05.371Z,78.12
2018-08-09T01:45:02.845Z,79.95
2018-08-09T01:50:02.620Z,81.69
2018-08-09T01:55:01.163Z,81.90
2018-08-09T01:59:58.739Z,81.91
2018-08-09T02:04:56.309Z,80.93
2018-08-09T02:09:53.829Z,81.82
2018-08-09T02:14:51.318Z,83.25
2018-08-09T02:19:48.781Z,83.63
2018-08-09T02:24:47.166Z,79.86
2018-08-09T02:29:44.638Z,81.81
2018-08-09T02:34:42.200Z,82.84
2018-08-09T02:39:39.686Z,83.09
2018-08-09T02:44:37.234Z,82.60
2018-08-09T02:49:34.733Z,81.53
2018-08-09T02:54:32.218Z,82.68
2018-08-09T02:59:29.728Z,82.84
2018-08-09T03:04:27.254Z,84.99
2018-08-09T03:09:24.745Z,83.46
2018-08-09T03:14:22.224Z,84.31
2018-08-09T03:19:19.698Z,84.82
2018-08-09T03:24:17.278Z,83.55
2018-08-09T03:29:14.763Z,83.72
2018-08-09T03:34:12.309Z,84.69
2018-08-09T03:39:11.115Z,84.19
2018-08-09T03:44:08.639Z,84.71
2018-08-09T03:49:06.492Z,85.45
2018-08-09T03:54:04.001Z,85.73
2018-08-09T03:59:01.680Z,85.11
2018-08-09T04:03:59.179Z,85.35
2018-08-09T04:08:56.679Z,85.37
2018-08-09T04:13:54.178Z,84.88
2018-08-09T04:18:51.748Z,84.98
2018-08-09T04:23:49.259Z,85.65
2018-08-09T04:28:46.777Z,83.91
2018-08-09T04:33:44.280Z,82.92
2018-08-09T04:38:42.158Z,82.48
2018-08-09T04:43:39.734Z,83.84
2018-08-09T04:48:37.332Z,83.53
2018-08-09T04:53:34.845Z,82.70
2018-08-09T04:58:32.407Z,82.95
2018-08-09T05:03:30.237Z,80.23
2018-08-09T05:08:27.741Z,80.12
2018-08-09T05:13:25.243Z,78.05
2018-08-09T05:18:22.750Z,77.93
2018-08-09T05:23:20.238Z,75.39
2018-08-09T05:28:17.738Z,75.88
2018-08-09T05:33:15.262Z,76.06
2018-08-09T05:38:12.738Z,75.22
2018-08-09T05:43:10.278Z,69.01
2018-08-09T05:48:07.780Z,69.08
2018-08-09T05:53:05.665Z,66.13
2018-08-09T05:58:03.210Z,66.60
2018-08-09T06:03:00.706Z,65.82
2018-08-09T06:07:58.214Z,63.34
2018-08-09T06:12:56.919Z,61.33
2018-08-09T06:17:54.391Z,63.15
2018-08-09T06:22:52.034Z,63.60
2018-08-09T06:27:49.521Z,62.79
2018-08-09T06:32:46.982Z,62.20
2018-08-09T06:37:44.511Z,62.72
2018-08-09T06:42:44.259Z,60.50
2018-08-09T06:47:41.802Z,60.31
2018-08-09T06:52:49.986Z,59.41
2018-08-09T06:57:52.269Z,60.53
2018-08-09T07:02:49.801Z,58.60
2018-08-09T07:07:47.335Z,58.74
2018-08-09T07:12:45.974Z,60.11
2018-08-09T07:17:43.546Z,60.82
2018-08-09T07:22:41.541Z,61.02
2018-08-09T07:27:39.067Z,61.49
2018-08-09T07:32:36.734Z,62.97
2018-08-09T07:37:34.252Z,65.60
2018-08-09T07:42:39.224Z,67.06
2018-08-09T07:47:36.799Z,71.40
2018-08-09T07:52:34.321Z,75.41
2018-08-09T07:57:31.830Z,76.09
2018-08-09T08:02:29.317Z,78.20
2018-08-09T08:07:26.842Z,79.85
2018-08-09T08:12:33.248Z,80.01
2018-08-09T08:17:30.742Z,80.40
2018-08-09T08:22:28.234Z,79.91
2018-08-09T08:27:25.762Z,79.62
2018-08-09T08:32:23.295Z,79.08
2018-08-09T08:37:20.849Z,78.39
2018-08-09T08:42:21.125Z,78.72
2018-08-09T08:47:18.818Z,78.90
2018-08-09T08:52:16.285Z,79.92
2018-08-09T08:57:13.790Z,79.25
2018-08-09T09:02:11.314Z,80.48
2018-08-09T09:07:08.860Z,79.96
2018-08-09T09:12:15.361Z,79.14
2018-08-09T09:17:12.993Z,79.61
2018-08-09T09:22:10.524Z,81.16
2018-08-09T09:27:09.330Z,80.89
2018-08-09T09:32:06.838Z,80.68
2018-08-09T09:37:04.659Z,80.31
2018-08-09T09:42:05.980Z,80.12
2018-08-09T09:47:03.611Z,76.87
2018-08-09T09:52:01.165Z,77.69
2018-08-09T09:56:58.677Z,76.51
2018-08-09T10:01:56.250Z,75.50
2018-08-09T10:06:53.737Z,69.68
2018-08-09T10:11:53.182Z,67.89
2018-08-09T10:16:50.653Z,67.93
2018-08-09T10:21:48.147Z,66.56
2018-08-09T10:26:45.662Z,65.82
2018-08-09T10:31:45.529Z,65.85
2018-08-09T10:36:43.063Z,61.94
2018-08-09T10:41:40.566Z,58.91
2018-08-09T10:46:38.053Z,60.69
2018-08-09T10:51:35.553Z,61.58
2018-08-09T10:56:33.069Z,65.04
2018-08-09T11:01:30.607Z,60.64
2018-08-09T11:06:28.097Z,57.25
2018-08-09T11:11:25.628Z,58.96
2018-08-09T11:16:23.125Z,58.71
2018-08-09T11:21:20.624Z,56.19
2018-08-09T11:26:18.127Z,55.75
2018-08-09T11:31:18.869Z,55.57
2018-08-09T11:36:16.453Z,54.80
2018-08-09T11:41:23.851Z,56.74
2018-08-09T11:46:22.574Z,56.20
2018-08-09T11:51:20.071Z,53.83
2018-08-09T11:56:17.674Z,51.80
2018-08-09T12:01:15.226Z,50.22
2018-08-09T12:06:12.717Z,47.55
2018-08-09T12:11:10.316Z,47.15
2018-08-09T12:16:07.870Z,46.92
2018-08-09T12:21:05.632Z,47.17
2018-08-09T12:26:03.150Z,47.00
2018-08-09T12:31:00.637Z,47.19
2018-08-09T12:35:58.158Z,45.71
2018-08-09T12:41:26.661Z,47.13
2018-08-09T12:46:24.238Z,47.01
2018-08-09T12:51:21.780Z,46.33
2018-08-09T12:56:19.330Z,46.55
2018-08-09T13:01:16.904Z,45.06
2018-08-09T13:06:14.392Z,45.68
2018-08-09T13:11:15.085Z,43.93
2018-08-09T13:16:12.655Z,44.86
2018-08-09T13:21:10.172Z,45.48
2018-08-09T13:26:07.800Z,45.70
2018-08-09T13:31:05.488Z,45.31
2018-08-09T13:36:03.134Z,45.39
2018-08-09T13:41:00.617Z,45.53
2018-08-09T13:45:58.129Z,44.72
2018-08-09T13:50:55.640Z,45.88
2018-08-09T13:55:53.146Z,45.66
2018-08-09T14:00:50.758Z,45.41
2018-08-09T14:05:48.238Z,45.36
2018-08-09T14:10:45.755Z,44.92
2018-08-09T14:15:43.340Z,42.80
2018-08-09T14:20:40.934Z,40.22
2018-08-09T14:25:38.457Z,38.63
2018-08-09T14:30:36.031Z,40.27
2018-08-09T14:35:33.586Z,39.97
2018-08-09T14:40:31.278Z,43.61
2018-08-09T14:45:28.850Z,44.00
2018-08-09T14:50:30.741Z,42.56
2018-08-09T14:55:32.540Z,64.07
2018-08-09T15:00:33.365Z,73.50
2018-08-09T15:05:33.895Z,77.26
2018-08-09T15:10:31.695Z,77.92
2018-08-09T15:15:29.310Z,78.16
2018-08-09T15:20:26.862Z,77.82
2018-08-09T15:25:24.386Z,80.07
2018-08-09T15:30:30.549Z,81.20
2018-08-09T15:35:28.080Z,81.05
2018-08-09T15:40:25.598Z,80.91
2018-08-09T15:45:27.799Z,81.52
2018-08-09T15:50:26.922Z,80.58
2018-08-09T15:55:26.175Z,81.65
2018-08-09T16:00:31.965Z,81.37
2018-08-09T16:05:33.076Z,80.85
2018-08-09T16:10:30.635Z,82.15
2018-08-09T16:15:28.142Z,81.70
2018-08-09T16:20:25.668Z,80.66
2018-08-09T16:25:23.198Z,79.21
2018-08-09T16:30:22.759Z,78.66
2018-08-09T16:35:20.275Z,77.46
2018-08-09T16:40:25.958Z,76.90
2018-08-09T16:45:24.349Z,75.04
2018-08-09T16:50:23.530Z,71.83
2018-08-09T16:55:22.146Z,69.41
2018-08-09T17:00:21.967Z,69.19
2018-08-09T17:05:20.723Z,67.10
2018-08-09T17:10:19.602Z,68.52
2018-08-09T17:15:21.749Z,70.78
2018-08-09T17:20:23.439Z,69.71
2018-08-09T17:25:21.028Z,71.42
2018-08-09T17:30:20.159Z,72.31
2018-08-09T17:35:18.344Z,72.54
2018-08-09T17:40:19.894Z,72.76
2018-08-09T17:45:18.383Z,72.69
2018-08-09T17:50:15.955Z,72.74
2018-08-09T17:55:14.766Z,73.09
2018-08-09T18:00:17.778Z,72.85
2018-08-09T18:05:15.348Z,73.15
2018-08-09T18:10:17.620Z,70.69
2018-08-09T18:15:15.626Z,70.39
2018-08-09T18:20:16.727Z,71.20
2018-08-09T18:25:15.082Z,70.24
2018-08-09T18:30:14.729Z,68.67
2018-08-09T18:35:14.646Z,68.83
2018-08-09T18:40:15.539Z,69.56
2018-08-09T18:45:13.077Z,70.35
2018-08-09T18:50:13.882Z,69.23
2018-08-09T18:55:12.722Z,70.53
2018-08-09T19:00:13.786Z,69.41
2018-08-09T19:05:11.294Z,70.18
2018-08-09T19:10:12.014Z,69.87
2018-08-09T19:15:10.433Z,69.80
2018-08-09T19:20:15.893Z,69.17
2018-08-09T19:25:13.787Z,69.62
2018-08-09T19:30:12.199Z,69.67
2018-08-09T19:35:11.566Z,69.65
2018-08-09T19:40:10.600Z,70.38
2018-08-09T19:45:10.132Z,69.93
2018-08-09T19:50:10.764Z,71.34
2018-08-09T19:55:10.263Z,70.75
2018-08-09T20:00:10.202Z,70.75
2018-08-09T20:05:08.907Z,70.63
2018-08-09T20:10:07.093Z,69.65
2018-08-09T20:15:07.161Z,68.94
2018-08-09T20:20:06.819Z,66.80
2018-08-09T20:25:05.346Z,68.00
2018-08-09T20:30:03.074Z,69.00
2018-08-09T20:35:00.645Z,68.78
2018-08-09T20:39:58.143Z,70.67
2018-08-09T20:44:55.704Z,71.22
2018-08-09T20:49:54.272Z,71.21
2018-08-09T20:54:51.747Z,71.66
2018-08-09T20:59:49.237Z,70.79
2018-08-09T21:04:46.706Z,69.78
2018-08-09T21:09:44.254Z,70.31
2018-08-09T21:14:41.734Z,70.17
2018-08-09T21:19:40.277Z,68.12
2018-08-09T21:24:37.769Z,67.37
2018-08-09T21:29:35.270Z,67.75
2018-08-09T21:34:32.803Z,68.15
2018-08-09T21:39:30.331Z,68.54
2018-08-09T21:44:27.810Z,68.11
2018-08-09T21:49:28.830Z,69.14
2018-08-09T21:54:26.485Z,68.27
2018-08-09T21:59:24.055Z,68.01
2018-08-09T22:04:21.560Z,68.01
2018-08-09T22:09:24.705Z,67.90
2018-08-09T22:14:27.845Z,66.75
2018-08-09T22:19:35.868Z,65.14
2018-08-09T22:24:33.459Z,65.50
2018-08-09T22:30:02.119Z,65.42
2018-08-09T22:34:59.640Z,65.38
2018-08-09T22:39:57.159Z,63.71
2018-08-09T22:44:54.707Z,63.13
2018-08-09T22:49:53.278Z,62.88
2018-08-09T22:54:50.802Z,63.18
2018-08-09T22:59:48.337Z,64.39
2018-08-09T23:04:45.824Z,64.61
2018-08-09T23:09:43.336Z,65.39
2018-08-09T23:14:40.837Z,65.46
2018-08-09T23:19:41.749Z,66.44
2018-08-09T23:24:39.283Z,67.82
2018-08-09T23:29:36.858Z,68.67
2018-08-09T23:34:34.439Z,68.26
2018-08-09T23:39:31.922Z,68.38
2018-08-09T23:44:29.419Z,69.40
2018-08-09T23:49:35.978Z,69.44
2018-08-09T23:54:35.417Z,70.47
2018-08-09T23:59:32.923Z,70.92
